Quick Links (Output Below):   Max & Min Temps   /   Climate Reports   /   Zone Forecasts
River Forecasts   /   Forestry Forecasts   /   Aviation Forecasts   /   Radars   /   Features

Terminal Aerodrome Forecast (Monticello)

Pick a Site:
Arkadelphia | El Dorado | Fayetteville | Fort Smith | Harrison | Highfill | Hot Springs | Jonesboro
Little Rock | Monticello | Mountain Home | Pine Bluff | Texarkana
 Forecast 

KLLQ 202331Z 2100/2124 28006KT P6SM SKC
     FM210100 VRB03KT P6SM SKC
     FM211400 17006KT P6SM VCSH SCT060 BKN250=


 Latest METARs (Observations) 
How to Decode METARs
01Z KLLQ 210053Z AUTO 00000KT 10SM CLR 17/04 A2991 RMK AO2 SLP125
         T01670039
         
00Z KLLQ 202353Z AUTO 30005KT 10SM CLR 20/01 A2989 RMK AO2 SLP119
         T02000011 10211 20189 53004
         
***** Today's Observations (Above) *****


23Z KLLQ 202253Z AUTO 28007KT 10SM CLR 21/02 A2988 RMK AO2 SLP118
         T02060017
         
22Z KLLQ 202153Z AUTO 31007KT 280V350 10SM CLR 21/03 A2987 RMK AO2
         SLP114 T02110028
         
21Z KLLQ 202053Z AUTO 29012G20KT 10SM CLR 21/02 A2988 RMK AO2 SLP115
         T02060022 58006
         
20Z KLLQ 201953Z AUTO 28010G16KT 10SM CLR 21/04 A2989 RMK AO2 SLP118
         T02110044
         
19Z KLLQ 201853Z AUTO 30010G16KT 10SM CLR 19/04 A2989 RMK AO2 SLP121
         T01940044
         
18Z KLLQ 201753Z AUTO 27012G18KT 10SM CLR 19/06 A2989 RMK AO2 SLP120
         T01940056 10194 20128 50002
         
17Z KLLQ 201653Z AUTO 31008G15KT 10SM CLR 18/05 A2991 RMK AO2 SLP126
         T01780050
         
16Z KLLQ 201553Z AUTO 30008G16KT 10SM CLR 17/06 A2991 RMK AO2 SLP127
         T01720061
         
***** Yesterday's Observations (Above) *****


Back to Main Page
http://www.srh.noaa.gov/lzk/qfcst.php

USA.gov is the U.S. government's official web portal to all federal, state and local government web resources and services.